sensor_id;sensor_type;location;lat;lon;timestamp;P1;durP1;ratioP1;P2;durP2;ratioP2
51465;SDS011;37542;50.164;9.086;2022-07-29T00:00:25;4.15;;;2.00;;
51465;SDS011;37542;50.164;9.086;2022-07-29T00:04:06;2.83;;;1.80;;
51465;SDS011;37542;50.164;9.086;2022-07-29T00:07:47;4.28;;;1.90;;
51465;SDS011;37542;50.164;9.086;2022-07-29T00:11:28;3.05;;;2.00;;
51465;SDS011;37542;50.164;9.086;2022-07-29T00:15:08;4.90;;;2.05;;
51465;SDS011;37542;50.164;9.086;2022-07-29T00:18:49;5.07;;;2.55;;
51465;SDS011;37542;50.164;9.086;2022-07-29T00:22:30;6.32;;;2.00;;
51465;SDS011;37542;50.164;9.086;2022-07-29T00:26:11;3.20;;;1.90;;
51465;SDS011;37542;50.164;9.086;2022-07-29T00:29:52;3.83;;;1.90;;
51465;SDS011;37542;50.164;9.086;2022-07-29T00:33:32;2.83;;;1.80;;
51465;SDS011;37542;50.164;9.086;2022-07-29T00:37:13;3.67;;;1.60;;
51465;SDS011;37542;50.164;9.086;2022-07-29T00:40:54;4.20;;;1.70;;
51465;SDS011;37542;50.164;9.086;2022-07-29T00:44:38;4.20;;;1.67;;
51465;SDS011;37542;50.164;9.086;2022-07-29T00:48:20;2.92;;;1.80;;
51465;SDS011;37542;50.164;9.086;2022-07-29T00:52:02;3.15;;;2.00;;
51465;SDS011;37542;50.164;9.086;2022-07-29T00:55:47;4.38;;;1.85;;
51465;SDS011;37542;50.164;9.086;2022-07-29T00:59:28;3.05;;;1.80;;
51465;SDS011;37542;50.164;9.086;2022-07-29T01:03:09;3.53;;;1.90;;
51465;SDS011;37542;50.164;9.086;2022-07-29T01:06:49;3.10;;;1.90;;
51465;SDS011;37542;50.164;9.086;2022-07-29T01:10:31;3.03;;;1.70;;
51465;SDS011;37542;50.164;9.086;2022-07-29T01:14:16;3.75;;;1.95;;
51465;SDS011;37542;50.164;9.086;2022-07-29T01:18:03;3.58;;;1.77;;
51465;SDS011;37542;50.164;9.086;2022-07-29T01:21:57;2.30;;;1.70;;
51465;SDS011;37542;50.164;9.086;2022-07-29T01:29:35;3.25;;;2.00;;
51465;SDS011;37542;50.164;9.086;2022-07-29T01:33:21;2.80;;;1.80;;
51465;SDS011;37542;50.164;9.086;2022-07-29T01:41:58;3.78;;;2.00;;
51465;SDS011;37542;50.164;9.086;2022-07-29T01:46:19;3.13;;;2.17;;
51465;SDS011;37542;50.164;9.086;2022-07-29T01:50:10;2.78;;;1.63;;
51465;SDS011;37542;50.164;9.086;2022-07-29T01:57:48;2.83;;;1.58;;
51465;SDS011;37542;50.164;9.086;2022-07-29T02:01:30;3.00;;;1.60;;
51465;SDS011;37542;50.164;9.086;2022-07-29T02:05:14;6.18;;;2.13;;
51465;SDS011;37542;50.164;9.086;2022-07-29T02:12:42;3.75;;;2.00;;
51465;SDS011;37542;50.164;9.086;2022-07-29T02:16:25;5.47;;;1.55;;
51465;SDS011;37542;50.164;9.086;2022-07-29T02:20:10;3.15;;;1.80;;
51465;SDS011;37542;50.164;9.086;2022-07-29T02:23:52;2.15;;;1.83;;
51465;SDS011;37542;50.164;9.086;2022-07-29T02:27:36;2.97;;;1.52;;
51465;SDS011;37542;50.164;9.086;2022-07-29T02:31:19;2.15;;;1.63;;
51465;SDS011;37542;50.164;9.086;2022-07-29T02:35:05;5.60;;;1.58;;
51465;SDS011;37542;50.164;9.086;2022-07-29T02:38:49;2.92;;;1.52;;
51465;SDS011;37542;50.164;9.086;2022-07-29T02:42:32;5.28;;;1.77;;
51465;SDS011;37542;50.164;9.086;2022-07-29T02:46:20;4.70;;;1.80;;
51465;SDS011;37542;50.164;9.086;2022-07-29T02:50:14;3.15;;;1.63;;
51465;SDS011;37542;50.164;9.086;2022-07-29T02:54:01;4.57;;;1.80;;
51465;SDS011;37542;50.164;9.086;2022-07-29T03:01:42;4.07;;;1.50;;
51465;SDS011;37542;50.164;9.086;2022-07-29T03:05:24;4.47;;;1.90;;
51465;SDS011;37542;50.164;9.086;2022-07-29T03:09:06;2.67;;;1.50;;
51465;SDS011;37542;50.164;9.086;2022-07-29T03:12:47;3.08;;;1.67;;
51465;SDS011;37542;50.164;9.086;2022-07-29T03:16:29;3.30;;;1.65;;
51465;SDS011;37542;50.164;9.086;2022-07-29T03:20:10;3.03;;;1.70;;
51465;SDS011;37542;50.164;9.086;2022-07-29T03:23:52;2.40;;;1.58;;
51465;SDS011;37542;50.164;9.086;2022-07-29T03:27:33;3.60;;;1.90;;
51465;SDS011;37542;50.164;9.086;2022-07-29T03:31:14;2.35;;;1.52;;
51465;SDS011;37542;50.164;9.086;2022-07-29T03:34:55;3.15;;;1.80;;
51465;SDS011;37542;50.164;9.086;2022-07-29T03:38:36;3.97;;;1.80;;
51465;SDS011;37542;50.164;9.086;2022-07-29T03:42:18;6.35;;;1.90;;
51465;SDS011;37542;50.164;9.086;2022-07-29T03:46:01;2.38;;;1.67;;
51465;SDS011;37542;50.164;9.086;2022-07-29T03:49:48;2.78;;;1.77;;
51465;SDS011;37542;50.164;9.086;2022-07-29T03:57:16;2.50;;;1.85;;
51465;SDS011;37542;50.164;9.086;2022-07-29T04:01:03;3.22;;;1.77;;
51465;SDS011;37542;50.164;9.086;2022-07-29T04:04:44;4.57;;;1.60;;
51465;SDS011;37542;50.164;9.086;2022-07-29T04:08:26;3.22;;;2.08;;
51465;SDS011;37542;50.164;9.086;2022-07-29T04:12:06;2.70;;;1.52;;
51465;SDS011;37542;50.164;9.086;2022-07-29T04:15:48;4.50;;;1.73;;
51465;SDS011;37542;50.164;9.086;2022-07-29T04:19:28;4.53;;;1.88;;
51465;SDS011;37542;50.164;9.086;2022-07-29T04:23:10;5.55;;;2.13;;
51465;SDS011;37542;50.164;9.086;2022-07-29T04:26:51;5.38;;;1.83;;
51465;SDS011;37542;50.164;9.086;2022-07-29T04:30:32;2.70;;;1.70;;
51465;SDS011;37542;50.164;9.086;2022-07-29T04:34:15;3.47;;;1.90;;
51465;SDS011;37542;50.164;9.086;2022-07-29T04:37:55;5.55;;;2.00;;
51465;SDS011;37542;50.164;9.086;2022-07-29T04:41:36;4.20;;;2.10;;
51465;SDS011;37542;50.164;9.086;2022-07-29T04:45:17;4.40;;;2.00;;
51465;SDS011;37542;50.164;9.086;2022-07-29T04:48:58;3.67;;;1.60;;
51465;SDS011;37542;50.164;9.086;2022-07-29T04:52:38;4.30;;;2.22;;
51465;SDS011;37542;50.164;9.086;2022-07-29T04:56:19;4.80;;;1.73;;
51465;SDS011;37542;50.164;9.086;2022-07-29T05:00:00;3.78;;;1.80;;
51465;SDS011;37542;50.164;9.086;2022-07-29T05:03:41;3.30;;;1.95;;
51465;SDS011;37542;50.164;9.086;2022-07-29T05:07:22;6.90;;;1.90;;
51465;SDS011;37542;50.164;9.086;2022-07-29T05:11:03;3.25;;;1.58;;
51465;SDS011;37542;50.164;9.086;2022-07-29T05:14:44;3.92;;;2.25;;
51465;SDS011;37542;50.164;9.086;2022-07-29T05:18:25;3.72;;;2.00;;
51465;SDS011;37542;50.164;9.086;2022-07-29T05:22:06;3.50;;;1.80;;
51465;SDS011;37542;50.164;9.086;2022-07-29T05:25:47;3.17;;;1.70;;
51465;SDS011;37542;50.164;9.086;2022-07-29T05:29:28;3.00;;;1.73;;
51465;SDS011;37542;50.164;9.086;2022-07-29T05:33:08;2.15;;;1.70;;
51465;SDS011;37542;50.164;9.086;2022-07-29T05:36:49;3.53;;;1.90;;
51465;SDS011;37542;50.164;9.086;2022-07-29T05:40:30;3.08;;;1.77;;
51465;SDS011;37542;50.164;9.086;2022-07-29T05:44:12;3.10;;;1.98;;
51465;SDS011;37542;50.164;9.086;2022-07-29T05:47:53;4.78;;;1.80;;
51465;SDS011;37542;50.164;9.086;2022-07-29T05:51:34;4.88;;;2.00;;
51465;SDS011;37542;50.164;9.086;2022-07-29T05:55:15;6.82;;;1.95;;
51465;SDS011;37542;50.164;9.086;2022-07-29T05:58:56;2.70;;;1.80;;
51465;SDS011;37542;50.164;9.086;2022-07-29T06:02:37;3.30;;;1.80;;
51465;SDS011;37542;50.164;9.086;2022-07-29T06:06:18;3.78;;;1.80;;
51465;SDS011;37542;50.164;9.086;2022-07-29T06:09:58;2.70;;;1.80;;
51465;SDS011;37542;50.164;9.086;2022-07-29T06:13:39;3.05;;;1.83;;
51465;SDS011;37542;50.164;9.086;2022-07-29T06:17:20;4.68;;;1.70;;
51465;SDS011;37542;50.164;9.086;2022-07-29T06:21:01;4.38;;;1.95;;
51465;SDS011;37542;50.164;9.086;2022-07-29T06:24:48;5.47;;;1.80;;
51465;SDS011;37542;50.164;9.086;2022-07-29T06:28:29;4.07;;;1.83;;
51465;SDS011;37542;50.164;9.086;2022-07-29T06:32:10;3.30;;;2.08;;
51465;SDS011;37542;50.164;9.086;2022-07-29T06:35:51;2.38;;;1.67;;
51465;SDS011;37542;50.164;9.086;2022-07-29T06:39:33;5.18;;;2.00;;
51465;SDS011;37542;50.164;9.086;2022-07-29T06:43:16;4.32;;;1.80;;
51465;SDS011;37542;50.164;9.086;2022-07-29T06:46:57;3.88;;;1.88;;
51465;SDS011;37542;50.164;9.086;2022-07-29T06:50:37;8.55;;;1.83;;
51465;SDS011;37542;50.164;9.086;2022-07-29T06:54:19;2.97;;;1.75;;
51465;SDS011;37542;50.164;9.086;2022-07-29T06:58:01;6.38;;;2.20;;
51465;SDS011;37542;50.164;9.086;2022-07-29T07:01:42;3.10;;;2.00;;
51465;SDS011;37542;50.164;9.086;2022-07-29T07:05:23;5.70;;;1.80;;
51465;SDS011;37542;50.164;9.086;2022-07-29T07:09:04;5.50;;;1.98;;
51465;SDS011;37542;50.164;9.086;2022-07-29T07:12:45;3.25;;;1.88;;
51465;SDS011;37542;50.164;9.086;2022-07-29T07:16:26;5.05;;;1.90;;
51465;SDS011;37542;50.164;9.086;2022-07-29T07:20:06;3.05;;;1.60;;
51465;SDS011;37542;50.164;9.086;2022-07-29T07:23:48;5.13;;;1.70;;
51465;SDS011;37542;50.164;9.086;2022-07-29T07:27:28;2.08;;;1.65;;
51465;SDS011;37542;50.164;9.086;2022-07-29T07:31:10;6.40;;;1.80;;
51465;SDS011;37542;50.164;9.086;2022-07-29T07:34:51;2.97;;;1.80;;
51465;SDS011;37542;50.164;9.086;2022-07-29T07:38:32;3.38;;;1.77;;
51465;SDS011;37542;50.164;9.086;2022-07-29T07:42:13;2.65;;;1.80;;
51465;SDS011;37542;50.164;9.086;2022-07-29T07:45:54;2.58;;;1.75;;
51465;SDS011;37542;50.164;9.086;2022-07-29T07:49:35;3.50;;;1.90;;
51465;SDS011;37542;50.164;9.086;2022-07-29T07:53:15;4.15;;;1.83;;
51465;SDS011;37542;50.164;9.086;2022-07-29T07:56:57;5.78;;;1.70;;
51465;SDS011;37542;50.164;9.086;2022-07-29T08:00:37;4.45;;;1.73;;
51465;SDS011;37542;50.164;9.086;2022-07-29T08:04:18;5.22;;;2.30;;
51465;SDS011;37542;50.164;9.086;2022-07-29T08:07:59;3.92;;;1.98;;
51465;SDS011;37542;50.164;9.086;2022-07-29T08:11:40;4.40;;;2.10;;
51465;SDS011;37542;50.164;9.086;2022-07-29T08:15:20;2.35;;;1.70;;
51465;SDS011;37542;50.164;9.086;2022-07-29T08:19:01;4.07;;;2.25;;
51465;SDS011;37542;50.164;9.086;2022-07-29T08:22:42;2.53;;;1.70;;
51465;SDS011;37542;50.164;9.086;2022-07-29T08:26:23;2.97;;;1.67;;
51465;SDS011;37542;50.164;9.086;2022-07-29T08:30:04;4.80;;;2.00;;
51465;SDS011;37542;50.164;9.086;2022-07-29T08:33:45;2.50;;;2.00;;
51465;SDS011;37542;50.164;9.086;2022-07-29T08:37:26;3.97;;;2.03;;
51465;SDS011;37542;50.164;9.086;2022-07-29T08:41:07;3.47;;;1.92;;
51465;SDS011;37542;50.164;9.086;2022-07-29T08:44:50;4.38;;;1.90;;
51465;SDS011;37542;50.164;9.086;2022-07-29T08:48:31;2.65;;;1.73;;
51465;SDS011;37542;50.164;9.086;2022-07-29T08:52:14;4.38;;;2.00;;
51465;SDS011;37542;50.164;9.086;2022-07-29T08:55:56;2.72;;;1.90;;
51465;SDS011;37542;50.164;9.086;2022-07-29T08:59:39;3.67;;;1.85;;
51465;SDS011;37542;50.164;9.086;2022-07-29T09:03:23;4.57;;;1.90;;
51465;SDS011;37542;50.164;9.086;2022-07-29T09:07:10;2.67;;;2.00;;
51465;SDS011;37542;50.164;9.086;2022-07-29T09:10:56;6.13;;;1.98;;
51465;SDS011;37542;50.164;9.086;2022-07-29T09:14:38;5.38;;;1.98;;
51465;SDS011;37542;50.164;9.086;2022-07-29T09:18:36;2.80;;;1.73;;
51465;SDS011;37542;50.164;9.086;2022-07-29T09:22:28;3.90;;;2.25;;
51465;SDS011;37542;50.164;9.086;2022-07-29T09:26:13;5.57;;;2.13;;
51465;SDS011;37542;50.164;9.086;2022-07-29T09:33:54;4.65;;;2.00;;
51465;SDS011;37542;50.164;9.086;2022-07-29T09:37:40;3.65;;;1.90;;
51465;SDS011;37542;50.164;9.086;2022-07-29T09:41:20;4.13;;;2.33;;
51465;SDS011;37542;50.164;9.086;2022-07-29T09:45:01;3.95;;;2.22;;
51465;SDS011;37542;50.164;9.086;2022-07-29T09:48:42;6.18;;;2.30;;
51465;SDS011;37542;50.164;9.086;2022-07-29T09:52:23;3.85;;;2.22;;
51465;SDS011;37542;50.164;9.086;2022-07-29T09:56:08;3.03;;;2.00;;
51465;SDS011;37542;50.164;9.086;2022-07-29T10:00:00;2.95;;;2.10;;
51465;SDS011;37542;50.164;9.086;2022-07-29T10:03:51;2.67;;;1.90;;
51465;SDS011;37542;50.164;9.086;2022-07-29T10:07:43;5.72;;;1.90;;
51465;SDS011;37542;50.164;9.086;2022-07-29T10:11:27;2.42;;;1.98;;
51465;SDS011;37542;50.164;9.086;2022-07-29T10:15:07;2.67;;;1.85;;
51465;SDS011;37542;50.164;9.086;2022-07-29T10:18:48;3.63;;;2.33;;
51465;SDS011;37542;50.164;9.086;2022-07-29T10:22:30;4.25;;;2.42;;
51465;SDS011;37542;50.164;9.086;2022-07-29T10:26:11;3.40;;;1.98;;
51465;SDS011;37542;50.164;9.086;2022-07-29T10:29:53;5.15;;;2.15;;
51465;SDS011;37542;50.164;9.086;2022-07-29T10:42:56;5.07;;;2.10;;
51465;SDS011;37542;50.164;9.086;2022-07-29T10:47:49;3.03;;;2.20;;
51465;SDS011;37542;50.164;9.086;2022-07-29T10:52:28;2.30;;;1.70;;
51465;SDS011;37542;50.164;9.086;2022-07-29T11:15:23;3.05;;;2.15;;
51465;SDS011;37542;50.164;9.086;2022-07-29T11:19:47;5.35;;;2.13;;
51465;SDS011;37542;50.164;9.086;2022-07-29T11:29:22;2.40;;;1.98;;
51465;SDS011;37542;50.164;9.086;2022-07-29T11:33:36;3.45;;;2.00;;
51465;SDS011;37542;50.164;9.086;2022-07-29T11:37:25;5.47;;;2.10;;
51465;SDS011;37542;50.164;9.086;2022-07-29T11:41:38;3.28;;;1.95;;
51465;SDS011;37542;50.164;9.086;2022-07-29T11:45:24;2.28;;;1.83;;
51465;SDS011;37542;50.164;9.086;2022-07-29T11:49:30;4.07;;;1.90;;
51465;SDS011;37542;50.164;9.086;2022-07-29T11:53:16;2.45;;;2.00;;
51465;SDS011;37542;50.164;9.086;2022-07-29T11:57:04;2.65;;;1.80;;
51465;SDS011;37542;50.164;9.086;2022-07-29T12:01:05;3.23;;;2.03;;
51465;SDS011;37542;50.164;9.086;2022-07-29T12:04:55;2.83;;;1.88;;
51465;SDS011;37542;50.164;9.086;2022-07-29T12:08:41;3.22;;;1.90;;
51465;SDS011;37542;50.164;9.086;2022-07-29T12:12:25;3.03;;;2.25;;
51465;SDS011;37542;50.164;9.086;2022-07-29T12:16:06;3.95;;;2.53;;
51465;SDS011;37542;50.164;9.086;2022-07-29T12:19:53;2.88;;;1.95;;
51465;SDS011;37542;50.164;9.086;2022-07-29T12:23:34;2.67;;;2.00;;
51465;SDS011;37542;50.164;9.086;2022-07-29T12:27:16;2.38;;;2.10;;
51465;SDS011;37542;50.164;9.086;2022-07-29T12:30:58;2.35;;;1.95;;
51465;SDS011;37542;50.164;9.086;2022-07-29T12:34:39;2.78;;;1.92;;
51465;SDS011;37542;50.164;9.086;2022-07-29T12:38:19;2.95;;;2.10;;
51465;SDS011;37542;50.164;9.086;2022-07-29T12:42:09;3.47;;;2.15;;
51465;SDS011;37542;50.164;9.086;2022-07-29T12:45:56;2.67;;;2.00;;
51465;SDS011;37542;50.164;9.086;2022-07-29T12:49:37;2.60;;;2.10;;
51465;SDS011;37542;50.164;9.086;2022-07-29T12:53:18;3.80;;;2.20;;
51465;SDS011;37542;50.164;9.086;2022-07-29T12:56:59;2.83;;;2.13;;
51465;SDS011;37542;50.164;9.086;2022-07-29T13:00:40;3.05;;;1.90;;
51465;SDS011;37542;50.164;9.086;2022-07-29T13:04:31;3.17;;;2.20;;
51465;SDS011;37542;50.164;9.086;2022-07-29T13:08:17;5.85;;;2.25;;
51465;SDS011;37542;50.164;9.086;2022-07-29T13:12:00;3.25;;;2.20;;
51465;SDS011;37542;50.164;9.086;2022-07-29T13:16:04;4.40;;;1.98;;
51465;SDS011;37542;50.164;9.086;2022-07-29T13:19:51;2.35;;;1.70;;
51465;SDS011;37542;50.164;9.086;2022-07-29T13:23:45;3.00;;;1.95;;
51465;SDS011;37542;50.164;9.086;2022-07-29T13:27:26;2.47;;;1.85;;
51465;SDS011;37542;50.164;9.086;2022-07-29T13:31:12;8.88;;;2.10;;
51465;SDS011;37542;50.164;9.086;2022-07-29T13:34:53;5.28;;;2.10;;
51465;SDS011;37542;50.164;9.086;2022-07-29T13:38:38;3.63;;;2.30;;
51465;SDS011;37542;50.164;9.086;2022-07-29T13:42:19;3.13;;;2.10;;
51465;SDS011;37542;50.164;9.086;2022-07-29T13:46:00;2.58;;;2.10;;
51465;SDS011;37542;50.164;9.086;2022-07-29T13:49:41;3.85;;;2.13;;
51465;SDS011;37542;50.164;9.086;2022-07-29T13:53:22;2.28;;;2.08;;
51465;SDS011;37542;50.164;9.086;2022-07-29T13:57:03;3.97;;;2.00;;
51465;SDS011;37542;50.164;9.086;2022-07-29T14:00:44;3.38;;;2.00;;
51465;SDS011;37542;50.164;9.086;2022-07-29T14:04:26;2.45;;;2.08;;
51465;SDS011;37542;50.164;9.086;2022-07-29T14:08:07;3.78;;;2.28;;
51465;SDS011;37542;50.164;9.086;2022-07-29T14:11:48;3.92;;;2.20;;
51465;SDS011;37542;50.164;9.086;2022-07-29T14:15:30;3.90;;;1.92;;
51465;SDS011;37542;50.164;9.086;2022-07-29T14:19:11;3.00;;;2.15;;
51465;SDS011;37542;50.164;9.086;2022-07-29T14:22:52;2.58;;;1.92;;
51465;SDS011;37542;50.164;9.086;2022-07-29T14:26:33;4.10;;;2.30;;
51465;SDS011;37542;50.164;9.086;2022-07-29T14:30:22;2.40;;;1.90;;
51465;SDS011;37542;50.164;9.086;2022-07-29T14:34:03;2.20;;;1.90;;
51465;SDS011;37542;50.164;9.086;2022-07-29T14:37:44;2.50;;;2.10;;
51465;SDS011;37542;50.164;9.086;2022-07-29T14:41:25;2.80;;;2.10;;
51465;SDS011;37542;50.164;9.086;2022-07-29T14:45:09;3.83;;;2.10;;
51465;SDS011;37542;50.164;9.086;2022-07-29T14:48:50;3.00;;;2.25;;
51465;SDS011;37542;50.164;9.086;2022-07-29T14:52:31;2.60;;;2.20;;
51465;SDS011;37542;50.164;9.086;2022-07-29T14:56:12;2.65;;;2.00;;
51465;SDS011;37542;50.164;9.086;2022-07-29T14:59:52;3.30;;;2.42;;
51465;SDS011;37542;50.164;9.086;2022-07-29T15:03:33;2.85;;;1.95;;
51465;SDS011;37542;50.164;9.086;2022-07-29T15:07:14;5.38;;;2.17;;
51465;SDS011;37542;50.164;9.086;2022-07-29T15:10:55;6.10;;;2.45;;
51465;SDS011;37542;50.164;9.086;2022-07-29T15:14:40;4.45;;;2.40;;
51465;SDS011;37542;50.164;9.086;2022-07-29T15:18:21;2.63;;;2.00;;
51465;SDS011;37542;50.164;9.086;2022-07-29T15:22:02;5.43;;;2.30;;
51465;SDS011;37542;50.164;9.086;2022-07-29T15:25:44;4.75;;;2.40;;
51465;SDS011;37542;50.164;9.086;2022-07-29T15:29:26;5.53;;;2.60;;
51465;SDS011;37542;50.164;9.086;2022-07-29T15:33:07;3.30;;;2.65;;
51465;SDS011;37542;50.164;9.086;2022-07-29T15:36:51;17.27;;;3.90;;
51465;SDS011;37542;50.164;9.086;2022-07-29T15:40:32;7.18;;;3.40;;
51465;SDS011;37542;50.164;9.086;2022-07-29T15:44:13;5.35;;;3.53;;
51465;SDS011;37542;50.164;9.086;2022-07-29T15:47:54;5.15;;;3.30;;
51465;SDS011;37542;50.164;9.086;2022-07-29T15:51:35;8.25;;;3.60;;
51465;SDS011;37542;50.164;9.086;2022-07-29T15:55:16;5.55;;;3.10;;
51465;SDS011;37542;50.164;9.086;2022-07-29T15:58:57;4.57;;;2.78;;
51465;SDS011;37542;50.164;9.086;2022-07-29T16:02:38;4.15;;;2.60;;
51465;SDS011;37542;50.164;9.086;2022-07-29T16:06:19;3.55;;;2.30;;
51465;SDS011;37542;50.164;9.086;2022-07-29T16:10:00;4.57;;;2.65;;
51465;SDS011;37542;50.164;9.086;2022-07-29T16:13:41;3.40;;;2.80;;
51465;SDS011;37542;50.164;9.086;2022-07-29T16:17:22;4.20;;;2.63;;
51465;SDS011;37542;50.164;9.086;2022-07-29T16:21:02;4.15;;;2.72;;
51465;SDS011;37542;50.164;9.086;2022-07-29T16:24:43;3.08;;;2.17;;
51465;SDS011;37542;50.164;9.086;2022-07-29T16:28:25;3.95;;;2.60;;
51465;SDS011;37542;50.164;9.086;2022-07-29T16:32:06;3.80;;;2.70;;
51465;SDS011;37542;50.164;9.086;2022-07-29T16:35:47;4.10;;;2.55;;
51465;SDS011;37542;50.164;9.086;2022-07-29T16:39:31;2.97;;;2.28;;
51465;SDS011;37542;50.164;9.086;2022-07-29T16:43:12;3.47;;;2.53;;
51465;SDS011;37542;50.164;9.086;2022-07-29T16:46:52;3.65;;;2.25;;
51465;SDS011;37542;50.164;9.086;2022-07-29T16:50:33;3.67;;;2.30;;
51465;SDS011;37542;50.164;9.086;2022-07-29T16:54:14;4.15;;;2.80;;
51465;SDS011;37542;50.164;9.086;2022-07-29T16:57:55;3.25;;;2.38;;
51465;SDS011;37542;50.164;9.086;2022-07-29T17:01:35;2.95;;;2.50;;
51465;SDS011;37542;50.164;9.086;2022-07-29T17:05:17;3.03;;;2.65;;
51465;SDS011;37542;50.164;9.086;2022-07-29T17:08:57;3.20;;;2.40;;
51465;SDS011;37542;50.164;9.086;2022-07-29T17:12:39;3.10;;;2.05;;
51465;SDS011;37542;50.164;9.086;2022-07-29T17:16:20;3.20;;;2.50;;
51465;SDS011;37542;50.164;9.086;2022-07-29T17:20:03;3.33;;;2.33;;
51465;SDS011;37542;50.164;9.086;2022-07-29T17:23:46;3.88;;;2.30;;
51465;SDS011;37542;50.164;9.086;2022-07-29T17:27:27;2.47;;;2.20;;
51465;SDS011;37542;50.164;9.086;2022-07-29T17:31:08;3.03;;;2.47;;
51465;SDS011;37542;50.164;9.086;2022-07-29T17:34:48;3.50;;;2.40;;
51465;SDS011;37542;50.164;9.086;2022-07-29T17:38:29;2.40;;;2.10;;
51465;SDS011;37542;50.164;9.086;2022-07-29T17:42:13;3.03;;;2.42;;
51465;SDS011;37542;50.164;9.086;2022-07-29T17:45:54;2.95;;;2.50;;
51465;SDS011;37542;50.164;9.086;2022-07-29T17:49:35;3.53;;;2.13;;
51465;SDS011;37542;50.164;9.086;2022-07-29T17:53:16;3.15;;;2.80;;
51465;SDS011;37542;50.164;9.086;2022-07-29T17:56:57;3.78;;;2.83;;
51465;SDS011;37542;50.164;9.086;2022-07-29T18:00:37;3.05;;;2.25;;
51465;SDS011;37542;50.164;9.086;2022-07-29T18:04:18;3.20;;;2.42;;
51465;SDS011;37542;50.164;9.086;2022-07-29T18:08:00;3.67;;;2.28;;
51465;SDS011;37542;50.164;9.086;2022-07-29T18:11:41;2.80;;;2.20;;
51465;SDS011;37542;50.164;9.086;2022-07-29T18:15:21;5.10;;;2.10;;
51465;SDS011;37542;50.164;9.086;2022-07-29T18:19:02;3.50;;;2.20;;
51465;SDS011;37542;50.164;9.086;2022-07-29T18:22:43;3.55;;;2.30;;
51465;SDS011;37542;50.164;9.086;2022-07-29T18:26:24;3.08;;;2.35;;
51465;SDS011;37542;50.164;9.086;2022-07-29T18:30:05;3.30;;;2.10;;
51465;SDS011;37542;50.164;9.086;2022-07-29T18:33:46;2.63;;;2.35;;
51465;SDS011;37542;50.164;9.086;2022-07-29T18:37:27;2.85;;;2.10;;
51465;SDS011;37542;50.164;9.086;2022-07-29T18:41:08;2.88;;;2.20;;
51465;SDS011;37542;50.164;9.086;2022-07-29T18:44:50;3.47;;;2.50;;
51465;SDS011;37542;50.164;9.086;2022-07-29T18:48:31;2.60;;;2.10;;
51465;SDS011;37542;50.164;9.086;2022-07-29T18:52:13;3.55;;;2.83;;
51465;SDS011;37542;50.164;9.086;2022-07-29T18:55:53;2.70;;;2.30;;
51465;SDS011;37542;50.164;9.086;2022-07-29T18:59:36;2.90;;;2.08;;
51465;SDS011;37542;50.164;9.086;2022-07-29T19:03:17;2.20;;;2.00;;
51465;SDS011;37542;50.164;9.086;2022-07-29T19:06:58;5.22;;;2.45;;
51465;SDS011;37542;50.164;9.086;2022-07-29T19:10:41;6.65;;;2.60;;
51465;SDS011;37542;50.164;9.086;2022-07-29T19:14:22;3.00;;;2.42;;
51465;SDS011;37542;50.164;9.086;2022-07-29T19:18:03;3.75;;;2.63;;
51465;SDS011;37542;50.164;9.086;2022-07-29T19:21:44;3.83;;;2.58;;
51465;SDS011;37542;50.164;9.086;2022-07-29T19:25:26;3.67;;;2.67;;
51465;SDS011;37542;50.164;9.086;2022-07-29T19:29:06;4.10;;;2.33;;
51465;SDS011;37542;50.164;9.086;2022-07-29T19:32:47;3.75;;;2.75;;
51465;SDS011;37542;50.164;9.086;2022-07-29T19:36:28;3.08;;;2.47;;
51465;SDS011;37542;50.164;9.086;2022-07-29T19:40:10;4.32;;;2.80;;
51465;SDS011;37542;50.164;9.086;2022-07-29T19:43:51;3.03;;;2.40;;
51465;SDS011;37542;50.164;9.086;2022-07-29T19:47:33;4.28;;;2.75;;
51465;SDS011;37542;50.164;9.086;2022-07-29T19:51:14;3.55;;;2.40;;
51465;SDS011;37542;50.164;9.086;2022-07-29T19:54:55;3.85;;;2.88;;
51465;SDS011;37542;50.164;9.086;2022-07-29T19:58:36;3.85;;;2.85;;
51465;SDS011;37542;50.164;9.086;2022-07-29T20:02:18;4.05;;;2.90;;
51465;SDS011;37542;50.164;9.086;2022-07-29T20:05:58;3.58;;;2.80;;
51465;SDS011;37542;50.164;9.086;2022-07-29T20:09:39;3.35;;;2.72;;
51465;SDS011;37542;50.164;9.086;2022-07-29T20:13:21;2.97;;;2.45;;
51465;SDS011;37542;50.164;9.086;2022-07-29T20:17:02;3.97;;;2.80;;
51465;SDS011;37542;50.164;9.086;2022-07-29T20:20:43;3.45;;;2.50;;
51465;SDS011;37542;50.164;9.086;2022-07-29T20:24:24;3.10;;;2.15;;
51465;SDS011;37542;50.164;9.086;2022-07-29T20:28:05;4.43;;;2.40;;
51465;SDS011;37542;50.164;9.086;2022-07-29T20:31:46;3.45;;;2.60;;
51465;SDS011;37542;50.164;9.086;2022-07-29T20:35:27;3.10;;;2.67;;
51465;SDS011;37542;50.164;9.086;2022-07-29T20:39:08;3.00;;;2.60;;
51465;SDS011;37542;50.164;9.086;2022-07-29T20:42:49;3.72;;;2.30;;
51465;SDS011;37542;50.164;9.086;2022-07-29T20:46:30;3.80;;;1.92;;
51465;SDS011;37542;50.164;9.086;2022-07-29T20:50:12;2.65;;;2.30;;
51465;SDS011;37542;50.164;9.086;2022-07-29T20:53:53;3.10;;;2.60;;
51465;SDS011;37542;50.164;9.086;2022-07-29T20:57:34;4.05;;;2.60;;
51465;SDS011;37542;50.164;9.086;2022-07-29T21:01:15;2.25;;;2.05;;
51465;SDS011;37542;50.164;9.086;2022-07-29T21:04:55;3.58;;;2.63;;
51465;SDS011;37542;50.164;9.086;2022-07-29T21:08:37;2.72;;;2.30;;
51465;SDS011;37542;50.164;9.086;2022-07-29T21:12:18;3.53;;;2.72;;
51465;SDS011;37542;50.164;9.086;2022-07-29T21:15:58;3.33;;;2.53;;
51465;SDS011;37542;50.164;9.086;2022-07-29T21:19:40;3.25;;;2.47;;
51465;SDS011;37542;50.164;9.086;2022-07-29T21:23:22;3.97;;;2.40;;
51465;SDS011;37542;50.164;9.086;2022-07-29T21:27:03;5.38;;;3.30;;
51465;SDS011;37542;50.164;9.086;2022-07-29T21:31:13;4.40;;;2.70;;
51465;SDS011;37542;50.164;9.086;2022-07-29T21:34:56;3.55;;;2.78;;
51465;SDS011;37542;50.164;9.086;2022-07-29T21:38:37;3.03;;;2.60;;
51465;SDS011;37542;50.164;9.086;2022-07-29T21:42:17;3.72;;;2.85;;
51465;SDS011;37542;50.164;9.086;2022-07-29T21:45:58;3.85;;;2.70;;
51465;SDS011;37542;50.164;9.086;2022-07-29T21:49:40;4.30;;;2.58;;
51465;SDS011;37542;50.164;9.086;2022-07-29T21:53:21;6.65;;;3.38;;
51465;SDS011;37542;50.164;9.086;2022-07-29T21:57:02;3.67;;;3.22;;
51465;SDS011;37542;50.164;9.086;2022-07-29T22:00:43;3.55;;;2.67;;
51465;SDS011;37542;50.164;9.086;2022-07-29T22:04:26;3.65;;;2.80;;
51465;SDS011;37542;50.164;9.086;2022-07-29T22:08:08;3.65;;;2.40;;
51465;SDS011;37542;50.164;9.086;2022-07-29T22:11:49;3.67;;;2.90;;
51465;SDS011;37542;50.164;9.086;2022-07-29T22:15:30;5.03;;;2.60;;
51465;SDS011;37542;50.164;9.086;2022-07-29T22:19:11;2.40;;;2.13;;
51465;SDS011;37542;50.164;9.086;2022-07-29T22:22:53;3.03;;;2.40;;
51465;SDS011;37542;50.164;9.086;2022-07-29T22:26:34;3.63;;;2.75;;
51465;SDS011;37542;50.164;9.086;2022-07-29T22:30:16;3.70;;;2.53;;
51465;SDS011;37542;50.164;9.086;2022-07-29T22:33:57;3.42;;;2.88;;
51465;SDS011;37542;50.164;9.086;2022-07-29T22:37:38;3.63;;;2.90;;
51465;SDS011;37542;50.164;9.086;2022-07-29T22:41:19;2.53;;;2.22;;
51465;SDS011;37542;50.164;9.086;2022-07-29T22:44:59;4.07;;;2.65;;
51465;SDS011;37542;50.164;9.086;2022-07-29T22:48:40;5.00;;;2.85;;
51465;SDS011;37542;50.164;9.086;2022-07-29T22:52:21;3.20;;;2.47;;
51465;SDS011;37542;50.164;9.086;2022-07-29T22:56:02;4.93;;;2.78;;
51465;SDS011;37542;50.164;9.086;2022-07-29T22:59:43;3.67;;;3.10;;
51465;SDS011;37542;50.164;9.086;2022-07-29T23:03:24;3.67;;;2.90;;
51465;SDS011;37542;50.164;9.086;2022-07-29T23:07:05;4.47;;;3.00;;
51465;SDS011;37542;50.164;9.086;2022-07-29T23:10:45;4.90;;;2.97;;
51465;SDS011;37542;50.164;9.086;2022-07-29T23:14:26;3.28;;;2.65;;
51465;SDS011;37542;50.164;9.086;2022-07-29T23:18:07;3.30;;;2.70;;
51465;SDS011;37542;50.164;9.086;2022-07-29T23:21:48;5.20;;;2.80;;
51465;SDS011;37542;50.164;9.086;2022-07-29T23:25:29;4.50;;;2.83;;